Time;durP1;ratioP1;P1;durP2;ratioP2;P2;SDS_P1;SDS_P2;PMS_P1;PMS_P2;Temp;Humidity;BMP_temperature;BMP_pressure;BME280_temperature;BME280_humidity;BME280_pressure;Samples;Min_cycle;Max_cycle;Signal;HPM_P1;HPM_P2
2023/04/17 00:00:53;;;;;;;19.42;10.13;;;;;;;13.33;18.73;100445.91;4978565;28;20825;-70
2023/04/17 00:03:19;;;;;;;18.08;10.10;;;;;;;13.33;18.53;100445.91;4962592;28;20049;-68
2023/04/17 00:05:45;;;;;;;19.88;8.68;;;;;;;13.35;18.60;100449.22;4978618;28;20622;-69
2023/04/17 00:08:11;;;;;;;23.10;9.40;;;;;;;13.40;18.70;100431.78;4978550;28;20563;-69
2023/04/17 00:10:37;;;;;;;18.02;9.27;;;;;;;13.33;18.65;100451.25;4962871;28;20064;-69
2023/04/17 00:13:03;;;;;;;21.45;9.80;;;;;;;13.37;18.58;100439.25;4980890;28;20045;-69
2023/04/17 00:15:29;;;;;;;20.85;10.65;;;;;;;13.27;18.78;100444.69;4980772;28;20060;-69
2023/04/17 00:17:55;;;;;;;19.75;9.52;;;;;;;13.28;18.70;100442.84;4980655;28;20065;-69
2023/04/17 00:20:21;;;;;;;18.30;9.65;;;;;;;13.28;18.82;100434.84;4980466;28;20175;-69
2023/04/17 00:22:47;;;;;;;18.13;9.52;;;;;;;13.33;18.76;100437.91;4980487;28;20042;-69
2023/04/17 00:25:13;;;;;;;17.70;8.93;;;;;;;13.35;18.61;100452.75;4980515;28;20052;-70
2023/04/17 00:27:41;;;;;;;17.42;9.55;;;;;;;13.36;18.60;100443.72;4996912;28;20066;-70
2023/04/17 00:30:08;;;;;;;18.98;8.65;;;;;;;13.37;18.77;100452.59;4980289;28;20045;-71
2023/04/17 00:32:34;;;;;;;18.20;9.35;;;;;;;13.21;18.85;100439.97;4963422;28;20046;-70
2023/04/17 00:35:00;;;;;;;18.73;9.73;;;;;;;13.21;18.76;100447.97;4964621;28;20093;-70
2023/04/17 00:37:29;;;;;;;17.77;8.82;;;;;;;13.10;19.01;100439.38;4980945;28;20073;-71
2023/04/17 00:39:55;;;;;;;17.00;9.55;;;;;;;13.11;19.20;100444.56;4980004;28;20085;-70
2023/04/17 00:42:21;;;;;;;18.23;10.13;;;;;;;13.09;18.94;100449.22;4996410;28;20037;-71
2023/04/17 00:44:46;;;;;;;18.98;10.13;;;;;;;13.13;19.06;100449.75;4963952;28;20052;-70
2023/04/17 00:47:12;;;;;;;19.70;9.27;;;;;;;12.97;19.12;100449.56;4963877;28;20050;-70
2023/04/17 00:49:38;;;;;;;16.75;9.10;;;;;;;12.97;19.34;100449.56;4979453;28;20144;-70
2023/04/17 00:52:04;;;;;;;20.58;9.55;;;;;;;12.81;19.74;100444.06;4996597;28;20128;-71
2023/04/17 00:54:31;;;;;;;18.67;10.68;;;;;;;12.76;19.62;100457.84;4979700;28;20136;-71
2023/04/17 00:56:57;;;;;;;18.10;9.73;;;;;;;12.65;19.84;100441.25;4979965;28;20058;-71
2023/04/17 00:59:27;;;;;;;20.45;10.52;;;;;;;12.75;19.81;100450.88;4978843;28;20369;-70
2023/04/17 01:01:53;;;;;;;19.35;10.02;;;;;;;12.65;19.91;100452.78;4978860;28;20046;-71
2023/04/17 01:04:19;;;;;;;19.30;9.93;;;;;;;12.63;19.92;100446.75;4962692;28;20072;-69
2023/04/17 01:06:46;;;;;;;23.08;9.80;;;;;;;12.60;19.96;100448.88;4995091;28;20162;-69
2023/04/17 01:09:12;;;;;;;19.75;10.23;;;;;;;12.55;20.22;100453.81;4978957;28;20053;-68
2023/04/17 01:11:39;;;;;;;19.17;10.50;;;;;;;12.49;20.15;100441.94;4979421;28;20069;-69
2023/04/17 01:14:05;;;;;;;19.52;10.52;;;;;;;12.49;20.26;100444.59;4963424;28;20546;-69
2023/04/17 01:16:32;;;;;;;20.95;9.80;;;;;;;12.43;20.47;100453.19;4963268;28;20071;-69
2023/04/17 01:18:58;;;;;;;21.80;10.63;;;;;;;12.48;20.42;100445.59;4995417;28;20050;-70
2023/04/17 01:21:24;;;;;;;25.70;11.55;;;;;;;12.41;20.41;100446.34;4963581;28;21322;-70
2023/04/17 01:23:51;;;;;;;22.90;10.88;;;;;;;12.50;20.29;100451.59;4943038;28;20571;-71
2023/04/17 01:26:20;;;;;;;20.55;10.60;;;;;;;12.49;20.41;100449.94;4958763;28;20200;-71
2023/04/17 01:28:54;;;;;;;24.20;11.85;;;;;;;12.63;20.57;100449.41;4927180;28;20050;-70
2023/04/17 01:31:20;;;;;;;22.23;11.65;;;;;;;12.40;20.96;100450.00;4942908;28;20480;-71
2023/04/17 01:33:49;;;;;;;29.70;12.25;;;;;;;12.57;20.72;100446.50;4958782;28;20082;-71
2023/04/17 01:36:15;;;;;;;31.75;11.73;;;;;;;12.33;20.85;100444.41;4942918;28;20045;-70
2023/04/17 01:38:41;;;;;;;21.88;12.15;;;;;;;12.29;20.74;100448.38;4927083;28;20050;-70
2023/04/17 01:41:09;;;;;;;20.63;11.52;;;;;;;12.38;20.60;100450.13;4943251;28;20050;-70
2023/04/17 01:43:38;;;;;;;21.45;11.77;;;;;;;12.45;21.03;100448.56;4942939;28;20116;-70
2023/04/17 01:46:04;;;;;;;22.83;11.23;;;;;;;12.25;20.90;100454.16;4955355;28;20078;-70
2023/04/17 01:48:30;;;;;;;22.10;11.73;;;;;;;12.09;21.11;100449.47;4923573;28;20055;-71
2023/04/17 01:50:56;;;;;;;21.63;11.68;;;;;;;12.01;21.37;100444.03;4923220;28;20055;-71
2023/04/17 01:53:21;;;;;;;22.50;12.57;;;;;;;11.97;21.53;100444.47;4923510;28;20489;-70
2023/04/17 01:55:47;;;;;;;24.83;11.43;;;;;;;11.88;21.36;100444.38;4926708;28;20094;-71
2023/04/17 01:58:13;;;;;;;23.90;11.93;;;;;;;11.96;21.50;100438.34;4942476;28;20090;-70
2023/04/17 02:00:39;;;;;;;22.55;10.95;;;;;;;11.99;21.52;100445.19;4974628;28;20050;-71
2023/04/17 02:03:05;;;;;;;19.27;10.98;;;;;;;11.97;21.49;100437.34;4974801;28;20366;-71
2023/04/17 02:05:31;;;;;;;25.63;11.70;;;;;;;11.95;21.55;100438.47;4974591;28;20165;-70
2023/04/17 02:07:57;;;;;;;17.38;11.15;;;;;;;11.93;21.70;100450.09;4958287;28;20580;-70
2023/04/17 02:10:25;;;;;;;22.20;11.40;;;;;;;12.01;21.49;100444.03;4958312;28;20054;-69
2023/04/17 02:12:51;;;;;;;21.67;10.55;;;;;;;11.95;21.53;100444.63;4958343;28;20447;-70
2023/04/17 02:15:18;;;;;;;23.13;11.90;;;;;;;11.96;21.66;100454.31;4942272;28;20042;-69
2023/04/17 02:17:44;;;;;;;23.30;11.80;;;;;;;11.88;21.78;100452.34;4957997;28;20057;-69
2023/04/17 02:20:10;;;;;;;19.67;11.25;;;;;;;11.86;21.80;100448.16;4942630;28;20057;-69
2023/04/17 02:22:36;;;;;;;25.33;11.25;;;;;;;11.73;21.85;100447.69;4961465;28;20046;-69
2023/04/17 02:25:02;;;;;;;22.33;10.93;;;;;;;11.74;21.88;100444.03;4995215;28;20046;-70
2023/04/17 02:27:30;;;;;;;17.70;10.43;;;;;;;11.71;22.04;100449.63;4978500;28;20046;-70
2023/04/17 02:29:56;;;;;;;26.65;11.00;;;;;;;11.77;21.83;100447.25;4994825;28;20042;-70
2023/04/17 02:32:22;;;;;;;19.63;10.68;;;;;;;11.70;22.05;100442.66;4962554;28;20038;-69
2023/04/17 02:34:48;;;;;;;23.02;11.60;;;;;;;11.73;21.90;100445.00;4962571;28;20104;-70
2023/04/17 02:37:16;;;;;;;21.85;11.57;;;;;;;11.64;22.08;100448.53;4978946;28;20049;-69
2023/04/17 02:39:42;;;;;;;22.35;11.15;;;;;;;11.69;21.77;100446.28;4962687;28;20599;-69
2023/04/17 02:42:09;;;;;;;23.58;10.70;;;;;;;11.67;22.03;100442.91;4962927;28;20112;-70
2023/04/17 02:44:34;;;;;;;20.25;10.38;;;;;;;11.63;22.00;100437.06;4978592;28;20046;-70
2023/04/17 02:47:01;;;;;;;20.25;10.68;;;;;;;11.69;21.98;100443.59;4962421;28;20046;-71
2023/04/17 02:49:31;;;;;;;22.95;11.00;;;;;;;11.77;21.73;100443.72;4963339;28;20056;-70
2023/04/17 02:51:57;;;;;;;20.75;11.00;;;;;;;11.90;21.76;100434.41;4978450;28;20231;-71
2023/04/17 02:54:23;;;;;;;19.85;11.10;;;;;;;11.89;21.67;100450.53;4957706;28;20157;-70
2023/04/17 02:56:51;;;;;;;21.88;11.10;;;;;;;11.97;21.78;100442.66;4960322;28;20058;-70
2023/04/17 02:59:18;;;;;;;22.38;10.63;;;;;;;11.92;21.52;100436.94;4976496;28;20086;-70
2023/04/17 03:01:44;;;;;;;25.90;10.88;;;;;;;11.94;21.37;100432.31;4977184;28;20061;-73
2023/04/17 03:04:12;;;;;;;17.20;10.48;;;;;;;11.96;21.69;100434.81;4976839;28;20109;-74
2023/04/17 03:06:38;;;;;;;28.35;11.02;;;;;;;12.08;21.47;100436.31;4960350;28;20050;-73
2023/04/17 03:09:04;;;;;;;23.52;10.77;;;;;;;12.10;21.45;100442.31;4961040;28;20049;-68
2023/04/17 03:11:30;;;;;;;21.67;10.43;;;;;;;12.16;21.56;100442.56;4993477;28;20112;-66
2023/04/17 03:13:55;;;;;;;23.23;10.50;;;;;;;12.26;21.46;100445.16;4977745;28;20085;-66
2023/04/17 03:16:24;;;;;;;20.02;10.88;;;;;;;12.31;21.47;100449.06;4961171;28;20501;-67
2023/04/17 03:18:50;;;;;;;26.40;11.27;;;;;;;12.34;21.53;100439.94;4961151;28;20133;-67
2023/04/17 03:21:15;;;;;;;20.02;11.52;;;;;;;12.21;21.63;100437.63;4960745;28;20137;-66
2023/04/17 03:23:42;;;;;;;22.95;11.60;;;;;;;12.39;21.43;100451.00;4977486;28;20505;-67
2023/04/17 03:26:08;;;;;;;31.75;12.40;;;;;;;12.32;21.82;100453.41;5006893;28;20396;-66
2023/04/17 03:28:34;;;;;;;27.73;11.93;;;;;;;12.32;21.74;100457.88;4980068;28;20054;-66
2023/04/17 03:31:01;;;;;;;23.70;12.75;;;;;;;12.20;21.88;100462.59;5012901;28;20065;-66
2023/04/17 03:33:29;;;;;;;29.75;12.18;;;;;;;12.22;22.11;100457.09;4979978;28;20054;-66
2023/04/17 03:35:57;;;;;;;31.95;12.15;;;;;;;12.20;22.11;100470.56;4964149;28;20056;-69
2023/04/17 03:38:23;;;;;;;28.58;11.52;;;;;;;12.16;22.16;100466.53;4963864;28;20046;-66
2023/04/17 03:40:50;;;;;;;27.15;10.50;;;;;;;12.15;22.16;100467.50;4979278;28;20045;-66
2023/04/17 03:43:16;;;;;;;26.95;11.65;;;;;;;12.08;22.48;100466.44;4994167;28;20710;-66
2023/04/17 03:45:42;;;;;;;29.33;11.85;;;;;;;12.06;22.63;100463.06;5012942;28;20061;-66
2023/04/17 03:48:07;;;;;;;27.13;11.68;;;;;;;12.00;22.50;100476.13;5029085;28;20064;-66
2023/04/17 03:50:34;;;;;;;29.50;11.60;;;;;;;11.98;22.65;100470.94;4998365;28;20821;-67
2023/04/17 03:53:00;;;;;;;27.75;11.00;;;;;;;12.06;22.36;100476.38;4981709;28;20054;-66
2023/04/17 03:55:27;;;;;;;22.20;12.35;;;;;;;11.96;22.39;100466.78;5014399;28;20049;-66
2023/04/17 03:57:54;;;;;;;22.85;11.27;;;;;;;12.03;22.28;100473.16;4998060;28;20120;-67
2023/04/17 04:00:20;;;;;;;23.60;11.18;;;;;;;12.03;22.45;100467.84;4995637;28;20070;-68
2023/04/17 04:02:50;;;;;;;25.05;11.23;;;;;;;12.15;22.37;100472.84;4991491;28;20099;-67
2023/04/17 04:05:21;;;;;;;21.45;11.85;;;;;;;12.09;22.59;100465.44;5017561;28;20056;-66
2023/04/17 04:07:47;;;;;;;27.88;12.30;;;;;;;12.16;22.48;100469.22;5000056;28;20037;-67
2023/04/17 04:10:20;;;;;;;23.30;11.55;;;;;;;12.31;22.30;100475.72;4985545;28;20065;-69
2023/04/17 04:12:46;;;;;;;23.85;11.07;;;;;;;12.45;22.16;100472.53;5016397;28;20041;-69
2023/04/17 04:15:15;;;;;;;28.45;12.00;;;;;;;12.63;22.23;100483.22;5000363;28;20049;-69
2023/04/17 04:17:45;;;;;;;24.85;12.02;;;;;;;12.86;22.65;100474.63;4983739;28;20053;-69
2023/04/17 04:20:12;;;;;;;33.78;13.68;;;;;;;12.97;22.59;100477.06;4982679;28;20476;-69
2023/04/17 04:22:40;;;;;;;25.67;12.20;;;;;;;13.07;22.43;100477.84;4984163;28;20472;-69
2023/04/17 04:25:07;;;;;;;23.92;12.32;;;;;;;13.21;22.27;100489.78;5000574;28;20064;-70
2023/04/17 04:27:48;;;;;;;34.63;12.68;;;;;;;13.33;22.67;100489.41;5002202;28;20080;-69
2023/04/17 04:30:16;;;;;;;28.80;12.65;;;;;;;13.53;22.92;100484.72;5001308;28;20042;-70
2023/04/17 04:32:45;;;;;;;28.23;12.93;;;;;;;13.75;22.80;100483.34;4984620;28;20041;-69
2023/04/17 04:35:19;;;;;;;35.88;12.50;;;;;;;14.02;22.25;100488.53;5016017;28;20041;-70
2023/04/17 04:37:45;;;;;;;32.97;12.27;;;;;;;13.99;22.57;100486.19;5016594;28;20052;-70
2023/04/17 04:40:16;;;;;;;35.85;12.23;;;;;;;14.22;21.83;100479.28;4983861;28;20468;-70
2023/04/17 04:42:48;;;;;;;33.58;12.40;;;;;;;14.21;21.83;100490.94;4984036;28;20049;-69
2023/04/17 04:45:18;;;;;;;32.22;11.88;;;;;;;14.34;21.68;100480.69;5032398;28;20095;-69
2023/04/17 04:47:44;;;;;;;23.13;12.23;;;;;;;14.42;21.03;100486.88;5000111;28;20041;-69
2023/04/17 04:50:12;;;;;;;22.90;12.20;;;;;;;14.58;21.05;100488.78;5032382;28;20041;-69
2023/04/17 04:52:39;;;;;;;22.58;11.82;;;;;;;14.81;20.63;100492.50;4998904;28;20424;-70
2023/04/17 04:55:14;;;;;;;29.63;12.60;;;;;;;14.79;20.21;100502.56;4999956;28;20049;-69
2023/04/17 04:57:46;;;;;;;37.60;12.20;;;;;;;14.89;20.42;100503.22;4983568;28;20056;-69
2023/04/17 05:00:13;;;;;;;24.85;12.88;;;;;;;15.10;20.38;100495.56;4983024;28;20049;-69
2023/04/17 05:02:42;;;;;;;24.90;11.53;;;;;;;15.21;20.45;100495.22;4999111;28;20049;-69
2023/04/17 05:05:11;;;;;;;26.52;13.32;;;;;;;15.28;20.24;100502.41;4983491;28;20045;-70
2023/04/17 05:07:37;;;;;;;26.45;12.77;;;;;;;15.42;20.15;100498.28;4983525;28;20041;-69
2023/04/17 05:10:06;;;;;;;31.75;13.52;;;;;;;15.54;20.20;100502.31;4983889;28;20041;-69
2023/04/17 05:12:35;;;;;;;25.97;12.37;;;;;;;15.69;19.93;100497.91;5016130;28;20103;-70
2023/04/17 05:15:05;;;;;;;32.28;12.82;;;;;;;15.87;19.53;100503.06;4983880;28;20705;-69
2023/04/17 05:17:33;;;;;;;25.27;12.32;;;;;;;15.98;19.30;100494.66;5015675;28;20059;-69
2023/04/17 05:19:59;;;;;;;34.35;12.40;;;;;;;16.13;19.03;100493.78;5014800;28;20395;-70
2023/04/17 05:22:26;;;;;;;24.23;11.38;;;;;;;16.27;18.55;100500.25;4982918;28;20033;-69
2023/04/17 05:25:03;;;;;;;23.83;11.65;;;;;;;16.57;19.52;100496.81;5000775;28;20042;-69
2023/04/17 05:27:29;;;;;;;20.13;11.55;;;;;;;16.60;18.80;100497.31;4999214;28;20393;-69
2023/04/17 05:29:58;;;;;;;27.73;12.20;;;;;;;16.71;18.55;100506.81;5015955;28;20053;-69
2023/04/17 05:32:24;;;;;;;27.45;12.48;;;;;;;16.71;18.71;100509.50;4982770;28;20055;-69
2023/04/17 05:34:57;;;;;;;25.67;11.82;;;;;;;16.66;18.65;100504.66;5016039;28;20057;-70
2023/04/17 05:37:25;;;;;;;26.25;11.00;;;;;;;16.65;18.87;100507.50;4983522;28;20029;-69
2023/04/17 05:39:51;;;;;;;27.60;11.77;;;;;;;16.68;19.05;100513.34;4983016;28;20099;-70
2023/04/17 05:42:17;;;;;;;28.38;12.38;;;;;;;16.54;19.03;100503.34;4983062;28;20481;-70
2023/04/17 05:44:43;;;;;;;22.80;12.68;;;;;;;16.57;19.27;100505.72;4998842;28;20052;-70
2023/04/17 05:47:09;;;;;;;28.60;12.93;;;;;;;16.49;19.30;100496.84;4998752;28;20072;-70
2023/04/17 05:49:36;;;;;;;26.42;12.43;;;;;;;16.57;19.20;100500.34;4982838;28;20499;-70
2023/04/17 05:52:02;;;;;;;25.30;12.00;;;;;;;16.62;19.29;100503.31;4982566;28;20049;-70
2023/04/17 05:54:29;;;;;;;30.60;11.98;;;;;;;16.77;18.98;100506.91;4981452;28;20153;-69
2023/04/17 05:56:56;;;;;;;30.98;11.82;;;;;;;16.66;19.19;100509.19;4999461;28;20128;-70
2023/04/17 05:59:22;;;;;;;35.20;12.40;;;;;;;16.56;19.21;100509.38;4982683;28;20071;-69
2023/04/17 06:01:49;;;;;;;27.30;12.77;;;;;;;16.43;19.44;100503.72;4998805;28;20060;-70
2023/04/17 06:04:19;;;;;;;27.52;13.13;;;;;;;16.56;19.22;100503.19;5015767;28;20375;-70
2023/04/17 06:06:47;;;;;;;23.88;12.30;;;;;;;16.41;19.50;100500.38;4999252;28;20037;-70
2023/04/17 06:09:14;;;;;;;31.10;12.30;;;;;;;16.47;19.62;100505.06;4982619;28;20041;-69
2023/04/17 06:11:40;;;;;;;36.38;12.65;;;;;;;16.43;19.68;100501.06;5015185;28;20049;-69
2023/04/17 06:14:06;;;;;;;25.88;11.95;;;;;;;16.44;19.65;100502.75;4982346;28;20037;-69
2023/04/17 06:16:32;;;;;;;25.67;12.48;;;;;;;16.52;19.89;100502.72;5014944;28;20045;-69
2023/04/17 06:18:58;;;;;;;29.90;11.80;;;;;;;16.61;19.64;100501.66;4982380;28;20136;-69
2023/04/17 06:21:26;;;;;;;31.77;12.25;;;;;;;16.71;19.59;100504.94;4982834;28;20144;-69
2023/04/17 06:23:52;;;;;;;33.35;11.85;;;;;;;16.83;19.40;100511.59;4998522;28;20133;-70
2023/04/17 06:26:18;;;;;;;27.92;11.88;;;;;;;16.93;19.48;100511.34;4998392;28;20129;-70
2023/04/17 06:28:44;;;;;;;18.52;11.52;;;;;;;16.99;19.43;100509.81;4998240;28;20107;-70
2023/04/17 06:31:10;;;;;;;27.42;12.27;;;;;;;17.16;19.24;100498.78;5017637;28;20048;-69
2023/04/17 06:33:36;;;;;;;26.35;12.07;;;;;;;17.51;19.13;100500.06;5018580;28;20049;-69
2023/04/17 06:36:02;;;;;;;22.80;11.52;;;;;;;17.94;18.90;100507.34;5002417;28;20046;-69
2023/04/17 06:38:37;;;;;;;27.25;12.50;;;;;;;18.16;18.60;100501.03;4988299;28;20057;-70
2023/04/17 06:41:03;;;;;;;33.22;12.82;;;;;;;18.59;18.59;100502.06;4986042;28;20056;-69
2023/04/17 06:43:29;;;;;;;24.80;11.98;;;;;;;18.94;17.87;100509.31;5002066;28;20045;-70
2023/04/17 06:46:00;;;;;;;;;;;;;;;19.57;17.76;100515.53;5003387;28;20072;-70
2023/04/17 06:48:26;;;;;;;32.55;12.25;;;;;;;19.54;17.43;100507.84;5002121;28;19975;-70
2023/04/17 06:50:53;;;;;;;34.83;12.90;;;;;;;19.79;17.43;100511.78;5002401;28;20049;-70
2023/04/17 06:53:20;;;;;;;29.25;11.60;;;;;;;19.55;17.00;100524.84;5018384;28;20144;-70
2023/04/17 06:55:46;;;;;;;31.55;12.90;;;;;;;19.13;17.63;100519.44;5001874;28;20045;-70
2023/04/17 06:58:12;;;;;;;34.97;12.10;;;;;;;18.76;17.82;100514.28;4985544;28;20057;-70
2023/04/17 07:00:38;;;;;;;27.02;11.05;;;;;;;18.58;17.76;100506.59;5034527;28;20128;-69
2023/04/17 07:03:04;;;;;;;30.88;11.68;;;;;;;18.56;17.77;100519.41;4985509;28;20140;-70
2023/04/17 07:05:30;;;;;;;19.55;10.43;;;;;;;18.31;18.20;100512.66;5001688;28;20064;-70
2023/04/17 07:07:56;;;;;;;27.38;10.95;;;;;;;18.33;18.11;100518.66;4985429;28;20033;-70
2023/04/17 07:10:22;;;;;;;26.17;11.35;;;;;;;18.36;18.40;100524.50;5001848;28;20053;-69
2023/04/17 07:12:48;;;;;;;21.00;10.77;;;;;;;18.33;18.18;100513.28;4985468;28;20041;-70
2023/04/17 07:15:14;;;;;;;19.90;10.70;;;;;;;18.41;18.19;100519.44;5001437;28;20076;-70
2023/04/17 07:17:39;;;;;;;18.83;9.38;;;;;;;18.61;17.90;100517.00;5001603;28;20132;-70
2023/04/17 07:20:06;;;;;;;22.45;10.68;;;;;;;19.02;17.76;100507.31;4985217;28;20122;-70
2023/04/17 07:22:35;;;;;;;26.33;9.88;;;;;;;19.27;17.63;100518.53;5001616;28;20080;-69
2023/04/17 07:25:01;;;;;;;18.58;10.25;;;;;;;19.50;17.11;100517.34;5001622;28;20419;-70
2023/04/17 07:27:27;;;;;;;18.55;8.55;;;;;;;19.55;16.95;100523.00;5001301;28;20056;-70
2023/04/17 07:29:54;;;;;;;15.27;7.68;;;;;;;19.43;16.85;100524.56;5001791;28;20467;-69
2023/04/17 07:32:20;;;;;;;16.42;8.77;;;;;;;19.37;17.15;100508.34;5017667;28;20041;-70
2023/04/17 07:34:47;;;;;;;20.08;10.63;;;;;;;19.37;17.30;100514.53;5017479;28;20055;-69
2023/04/17 07:37:16;;;;;;;19.58;9.60;;;;;;;19.40;17.19;100510.63;5001199;28;20132;-70
2023/04/17 07:39:44;;;;;;;21.98;8.35;;;;;;;19.34;17.46;100514.09;4985571;28;20045;-70
2023/04/17 07:42:10;;;;;;;17.38;8.07;;;;;;;18.69;17.58;100519.59;4984131;28;20042;-70
2023/04/17 07:44:37;;;;;;;14.48;7.85;;;;;;;18.69;18.04;100516.91;4985071;28;20468;-70
2023/04/17 07:47:03;;;;;;;20.70;8.73;;;;;;;18.34;18.40;100514.97;5001190;28;20484;-70
2023/04/17 07:49:29;;;;;;;15.77;8.43;;;;;;;18.52;18.25;100517.28;4984684;28;20052;-70
2023/04/17 07:51:55;;;;;;;17.65;8.55;;;;;;;18.78;18.32;100518.44;5017393;28;20052;-70
2023/04/17 07:54:21;;;;;;;13.02;7.00;;;;;;;18.88;17.92;100510.88;5000614;28;20049;-70
2023/04/17 07:56:48;;;;;;;18.00;7.80;;;;;;;18.96;17.92;100521.53;5017242;28;20045;-69
2023/04/17 07:59:15;;;;;;;16.05;7.80;;;;;;;19.13;17.47;100506.81;5017307;28;20060;-69
2023/04/17 08:01:41;;;;;;;11.00;5.90;;;;;;;20.23;16.29;100530.38;5000528;28;20045;-70
2023/04/17 08:04:07;;;;;;;12.25;6.50;;;;;;;21.14;15.52;100525.38;5000665;28;20045;-70
2023/04/17 08:06:33;;;;;;;25.15;7.85;;;;;;;22.89;14.51;100526.25;4984426;28;20144;-70
2023/04/17 08:09:01;;;;;;;11.90;6.55;;;;;;;24.96;12.98;100525.66;5016896;28;20191;-70
2023/04/17 08:11:31;;;;;;;13.23;7.10;;;;;;;27.56;11.07;100514.53;5001046;28;20044;-70
2023/04/17 08:13:56;;;;;;;12.68;6.78;;;;;;;29.29;9.98;100529.28;4984997;28;20043;-70
2023/04/17 08:16:22;;;;;;;13.50;5.90;;;;;;;29.21;9.68;100529.75;4984119;28;20042;-70
2023/04/17 08:18:48;;;;;;;9.98;5.53;;;;;;;30.01;8.82;100522.28;4984198;28;20045;-70
2023/04/17 08:21:14;;;;;;;11.95;5.03;;;;;;;30.74;8.50;100535.03;4984070;28;20041;-70
2023/04/17 08:23:40;;;;;;;9.90;5.05;;;;;;;31.74;7.56;100526.22;5000128;28;20134;-70
2023/04/17 08:26:06;;;;;;;20.67;5.93;;;;;;;31.28;8.02;100510.78;5000984;28;20056;-70
2023/04/17 08:28:32;;;;;;;12.75;5.10;;;;;;;30.86;8.28;100511.00;4984039;28;20144;-70
2023/04/17 08:30:58;;;;;;;10.85;4.90;;;;;;;30.10;8.25;100507.00;4984327;28;20064;-70
2023/04/17 08:33:25;;;;;;;10.48;5.20;;;;;;;31.23;7.92;100499.81;4983958;28;20034;-70
2023/04/17 08:35:52;;;;;;;8.50;5.00;;;;;;;32.13;7.21;100502.59;4984165;28;20077;-70
2023/04/17 08:38:18;;;;;;;10.43;4.63;;;;;;;33.20;6.79;100512.94;4983925;28;20107;-71
2023/04/17 08:40:50;;;;;;;13.70;4.97;;;;;;;32.72;6.59;100516.47;4984104;28;20466;-71
2023/04/17 08:43:18;;;;;;;8.98;4.55;;;;;;;31.61;7.23;100499.31;5016710;28;20041;-70
2023/04/17 08:45:55;;;;;;;8.27;4.57;;;;;;;30.72;7.50;100485.91;5000292;28;20033;-71
2023/04/17 08:48:23;;;;;;;12.18;4.40;;;;;;;31.00;7.54;100496.47;5000573;28;20060;-71
2023/04/17 08:50:50;;;;;;;9.15;4.68;;;;;;;31.61;7.25;100496.56;4983718;28;20482;-70
2023/04/17 08:53:17;;;;;;;10.52;5.22;;;;;;;30.87;7.58;100485.19;5032488;28;20049;-71
2023/04/17 08:55:44;;;;;;;9.43;5.03;;;;;;;30.96;7.67;100502.78;5016039;28;20049;-71
2023/04/17 08:58:10;;;;;;;12.27;5.00;;;;;;;30.39;7.69;100486.34;5032395;28;20045;-71
2023/04/17 09:00:40;;;;;;;9.18;5.35;;;;;;;30.96;7.58;100484.41;5015939;28;20049;-71
2023/04/17 09:03:12;;;;;;;8.60;4.53;;;;;;;31.21;7.20;100491.84;4999556;28;20442;-71
2023/04/17 09:05:42;;;;;;;10.98;4.43;;;;;;;30.82;7.40;100487.91;5016372;28;20049;-71
2023/04/17 09:08:15;;;;;;;8.32;4.53;;;;;;;30.85;7.11;100484.63;4999694;28;20115;-71
2023/04/17 09:10:46;;;;;;;12.68;4.18;;;;;;;29.83;7.32;100494.47;4999747;28;20046;-70
2023/04/17 09:13:14;;;;;;;13.50;4.50;;;;;;;28.45;7.98;100481.47;4999448;28;20058;-70
2023/04/17 09:16:02;;;;;;;11.00;4.45;;;;;;;28.65;8.50;100480.94;5104907;27;1408714;-71
2023/04/17 09:18:31;;;;;;;11.35;5.00;;;;;;;28.88;8.29;100486.97;5095520;28;20466;-71
2023/04/17 09:20:58;;;;;;;11.73;4.88;;;;;;;28.28;8.21;100471.69;5096067;28;20481;-71
2023/04/17 09:23:26;;;;;;;10.68;5.25;;;;;;;28.08;8.57;100476.88;5095793;28;20051;-71
2023/04/17 09:26:09;;;;;;;9.85;4.50;;;;;;;29.28;8.11;100481.09;5095593;28;20035;-71
2023/04/17 09:28:40;;;;;;;11.18;4.63;;;;;;;30.93;7.75;100473.13;5092027;28;20355;-71
2023/04/17 09:31:18;;;;;;;5.20;4.03;;;;;;;33.61;6.31;100479.28;5108965;28;20048;-71
2023/04/17 09:33:56;;;;;;;12.15;4.22;;;;;;;35.81;5.37;100471.22;5074930;28;20048;-71
2023/04/17 09:36:22;;;;;;;13.82;4.03;;;;;;;37.90;4.62;100467.72;5108775;28;20454;-71
2023/04/17 09:38:50;;;;;;;10.23;3.80;;;;;;;40.31;3.42;100464.81;5075020;28;20404;-71
2023/04/17 09:41:30;;;;;;;7.55;4.40;;;;;;;41.64;2.93;100472.91;5075064;28;20050;-72
2023/04/17 09:44:04;;;;;;;7.63;3.80;;;;;;;38.36;3.99;100458.97;5058238;28;20044;-72
2023/04/17 09:46:44;;;;;;;10.15;4.28;;;;;;;34.72;4.77;100443.06;5091674;28;20073;-71
2023/04/17 09:49:29;;;;;;;10.93;4.10;;;;;;;33.19;5.99;100447.94;5124928;28;20077;-71
2023/04/17 09:51:56;;;;;;;8.38;3.78;;;;;;;31.08;6.84;100449.28;5074541;28;20102;-71
2023/04/17 09:54:24;;;;;;;10.90;3.97;;;;;;;29.13;7.90;100428.97;5057875;28;20035;-71
2023/04/17 09:56:51;;;;;;;11.18;3.42;;;;;;;28.83;8.38;100436.84;5091271;28;20066;-71
2023/04/17 09:59:17;;;;;;;13.23;3.90;;;;;;;29.37;8.23;100455.72;5074341;28;20138;-71
2023/04/17 10:01:44;;;;;;;11.35;4.10;;;;;;;30.03;8.12;100442.56;5074712;28;20043;-71
2023/04/17 10:04:10;;;;;;;8.18;3.42;;;;;;;32.48;7.05;100428.25;5091405;28;20056;-71
2023/04/17 10:06:38;;;;;;;9.80;3.53;;;;;;;34.72;5.78;100432.03;5042359;28;20118;-71
2023/04/17 10:09:04;;;;;;;10.40;3.60;;;;;;;34.73;5.83;100446.66;5057657;28;20040;-71
2023/04/17 10:11:35;;;;;;;8.02;3.42;;;;;;;34.01;5.48;100428.50;5057829;28;20394;-71
2023/04/17 10:14:11;;;;;;;12.52;3.38;;;;;;;32.41;6.27;100445.06;5074246;28;20055;-71
2023/04/17 10:16:38;;;;;;;8.70;3.70;;;;;;;31.51;7.15;100447.13;5073934;28;20065;-71
2023/04/17 10:19:23;;;;;;;6.63;3.97;;;;;;;31.35;7.16;100442.75;5091425;28;20054;-71
2023/04/17 10:22:17;;;;;;;5.97;4.05;;;;;;;30.89;7.78;100433.63;5074100;28;20078;-71
2023/04/17 10:25:12;;;;;;;7.10;3.40;;;;;;;31.40;7.45;100438.06;5073962;28;20047;-70
2023/04/17 10:27:41;;;;;;;7.38;3.05;;;;;;;31.45;7.42;100420.78;5064213;28;20044;-71
2023/04/17 10:30:11;;;;;;;10.90;4.15;;;;;;;31.18;7.53;100430.06;5077188;28;20433;-71
2023/04/17 10:32:43;;;;;;;9.53;3.20;;;;;;;30.87;7.55;100435.81;5094328;28;20036;-71
2023/04/17 10:35:30;;;;;;;6.68;2.90;;;;;;;29.90;8.08;100421.94;5060764;28;20079;-69
2023/04/17 10:38:44;;;;;;;6.45;3.05;;;;;;;28.59;8.91;100436.31;5072317;28;20079;-70
2023/04/17 10:41:11;;;;;;;7.22;3.47;;;;;;;27.74;9.30;100424.19;5052103;28;20044;-71
2023/04/17 10:43:41;;;;;;;12.65;3.05;;;;;;;26.38;10.20;100408.13;5023020;28;20059;-70
2023/04/17 10:46:11;;;;;;;4.28;2.85;;;;;;;26.08;10.28;100434.69;5039440;28;20498;-70
2023/04/17 10:48:51;;;;;;;7.72;3.17;;;;;;;25.10;11.20;100438.25;5056146;28;20494;-70
2023/04/17 10:51:22;;;;;;;;;;;;;;;24.71;11.44;100431.53;5007023;28;20044;-70
2023/04/17 10:53:56;;;;;;;4.05;2.90;;;;;;;24.43;11.96;100416.84;4983171;28;19936;-71
2023/04/17 10:56:38;;;;;;;7.05;3.10;;;;;;;23.75;12.13;100408.00;5016062;28;20057;-70
2023/04/17 10:59:09;;;;;;;13.30;3.92;;;;;;;23.96;12.20;100414.91;4983455;28;20400;-70
2023/04/17 11:01:47;;;;;;;6.15;3.20;;;;;;;24.67;12.06;100421.34;4983401;28;20168;-71
2023/04/17 11:04:21;;;;;;;7.97;3.13;;;;;;;25.22;11.37;100419.28;4999331;28;20061;-71
2023/04/17 11:06:47;;;;;;;6.43;3.20;;;;;;;25.25;11.46;100416.91;5015774;28;20123;-70
2023/04/17 11:09:14;;;;;;;6.22;3.72;;;;;;;25.62;11.28;100409.38;4961535;28;20484;-70
2023/04/17 11:11:42;;;;;;;5.30;2.90;;;;;;;25.73;11.18;100412.09;5003456;28;20061;-70
2023/04/17 11:14:21;;;;;;;7.03;3.50;;;;;;;24.75;11.82;100394.69;4988312;28;20499;-70
2023/04/17 11:16:49;;;;;;;4.68;3.10;;;;;;;24.01;12.39;100409.63;4995639;28;20037;-70
2023/04/17 11:19:20;;;;;;;10.32;4.40;;;;;;;24.59;12.21;100416.19;4980276;28;20060;-71
2023/04/17 11:21:53;;;;;;;7.15;3.58;;;;;;;24.52;12.49;100410.03;4996349;28;20551;-70